Mostonga I — YT-2185 — position and weather

sailwx.info

Track history (hours):
 
Tides and Currents Weather Stations Pressure Air Temp Water Temp Dewpoint Dewpoint Depression Visibility Wind Speed Wind Dir Waves Ship Positions

Mostonga I

Last reported at 2017-Dec-12 13:27 UTC. Time now 2017-Dec-15 20:10 UTC.
Position N 44°48' E 021°18'.

Length 70 m; draft 2 m.

Type: Cargo ship. MMSI: 279202185.

Date/timePositionNaut miles runAvg speedWind from/ knotsBaromVisibWave heightAir tempDewpointWater temp
2017-Dec-12 13:27N 44°48' E 021°18'2 4.0
2017-Dec-12 13:00N 44°48' E 021°15'2 4.0
2017-Dec-12 12:30N 44°47' E 021°13'2 3.9
2017-Dec-12 12:00N 44°46' E 021°11'0 0.3
2017-Dec-12 11:31N 44°46' E 021°10'0 0.1
2017-Dec-12 11:01N 44°45' E 021°10'4 0.6
2017-Dec-12 05:08N 44°44' E 021°06'1 0.2
2017-Dec-12 00:30N 44°43' E 021°05'0 0.0
2017-Dec-12 00:01N 44°43' E 021°05'0 0.0
2017-Dec-11 23:31N 44°43' E 021°05'0 0.0
2017-Dec-11 23:00N 44°43' E 021°05'0 0.0
2017-Dec-11 22:31N 44°43' E 021°05'0 0.0
2017-Dec-11 22:01N 44°43' E 021°05'0 0.0
2017-Dec-11 21:31N 44°43' E 021°05'0 0.0
2017-Dec-11 21:01N 44°43' E 021°05'0 0.0
2017-Dec-11 20:31N 44°43' E 021°05'0 0.0
2017-Dec-11 20:00N 44°43' E 021°05'0 0.0
2017-Dec-11 19:30N 44°43' E 021°05'0 0.0
2017-Dec-11 19:01N 44°43' E 021°05'0 0.0
2017-Dec-11 18:31N 44°43' E 021°05'0 0.0
2017-Dec-11 18:00N 44°43' E 021°05'0 0.0
2017-Dec-11 17:30N 44°43' E 021°05'0 0.0
2017-Dec-11 17:01N 44°43' E 021°05'0 0.0
2017-Dec-11 16:31N 44°43' E 021°05'0 0.0
2017-Dec-11 16:01N 44°43' E 021°05'0 0.0
2017-Dec-11 15:31N 44°43' E 021°05'0 0.1
2017-Dec-11 15:00N 44°43' E 021°05'2 3.7
2017-Dec-11 14:31N 44°43' E 021°02'2 4.2
2017-Dec-11 14:01N 44°43' E 020°59'2 4.0
2017-Dec-11 13:31N 44°42' E 020°57'2 4.5
2017-Dec-11 13:00N 44°40' E 020°55'25 3.3
2017-Dec-11 05:30N 44°52' E 020°24'0 0.0
2017-Dec-11 05:01N 44°52' E 020°24'0 0.0
2017-Dec-11 04:31N 44°52' E 020°24'0 0.0
2017-Dec-11 04:01N 44°52' E 020°24'0 0.0
2017-Dec-11 03:31N 44°52' E 020°24'0 0.0
2017-Dec-11 03:01N 44°52' E 020°24'0 0.0
2017-Dec-11 02:31N 44°52' E 020°24'0 0.0
2017-Dec-11 02:00N 44°52' E 020°24'0 0.0
2017-Dec-11 01:31N 44°52' E 020°24'0 0.0
2017-Dec-11 01:01N 44°52' E 020°24'0 0.0
2017-Dec-11 00:31N 44°52' E 020°24'0 0.0
2017-Dec-11 00:01N 44°52' E 020°24'0 0.0
2017-Dec-10 23:31N 44°52' E 020°24'0 0.0
2017-Dec-10 23:01N 44°52' E 020°24'0 0.0
2017-Dec-10 22:31N 44°52' E 020°24'0 0.0
2017-Dec-10 22:01N 44°52' E 020°24'0 0.0
2017-Dec-10 21:31N 44°52' E 020°24'0 0.1
2017-Dec-10 21:01N 44°52' E 020°24'2 4.4
2017-Dec-10 20:31N 44°53' E 020°21'2 4.6
2017-Dec-10 20:01N 44°55' E 020°20'3 5.0
2017-Dec-10 19:31N 44°57' E 020°18'2 4.8
2017-Dec-10 19:00N 44°59' E 020°18'3 5.4
2017-Dec-10 18:30N 45°00' E 020°21'2 4.7
2017-Dec-10 18:00N 45°03' E 020°22'3 4.8
2017-Dec-10 17:27N 45°05' E 020°19'2 4.7
2017-Dec-10 17:00N 45°07' E 020°18'2 4.1
2017-Dec-10 16:30N 45°08' E 020°17'2 3.7
2017-Dec-10 15:57N 45°11' E 020°17'2 3.8
2017-Dec-10 15:31N 45°12' E 020°19'2 4.0
2017-Dec-10 15:00N 45°14' E 020°19'  
Track history (hours):
 
Tides and Currents Weather Stations Pressure Air Temp Water Temp Dewpoint Dewpoint Depression Visibility Wind Speed Wind Dir Waves Ship Positions

Mostonga I

Last reported at 2017-Dec-12 13:27 UTC. Time now 2017-Dec-15 20:10 UTC.
Position N 44°48' E 021°18'.

Length 70 m; draft 2 m.

Type: Cargo ship. MMSI: 279202185.

Date/timePositionNaut miles runAvg speedWind from/ knotsBaromVisibWave heightAir tempDewpointWater temp
2017-Dec-12 13:27N 44°48' E 021°18'2 4.0
2017-Dec-12 13:00N 44°48' E 021°15'2 4.0
2017-Dec-12 12:30N 44°47' E 021°13'2 3.9
2017-Dec-12 12:00N 44°46' E 021°11'0 0.3
2017-Dec-12 11:31N 44°46' E 021°10'0 0.1
2017-Dec-12 11:01N 44°45' E 021°10'4 0.6
2017-Dec-12 05:08N 44°44' E 021°06'1 0.2
2017-Dec-12 00:30N 44°43' E 021°05'0 0.0
2017-Dec-12 00:01N 44°43' E 021°05'0 0.0
2017-Dec-11 23:31N 44°43' E 021°05'0 0.0
2017-Dec-11 23:00N 44°43' E 021°05'0 0.0
2017-Dec-11 22:31N 44°43' E 021°05'0 0.0
2017-Dec-11 22:01N 44°43' E 021°05'0 0.0
2017-Dec-11 21:31N 44°43' E 021°05'0 0.0
2017-Dec-11 21:01N 44°43' E 021°05'0 0.0
2017-Dec-11 20:31N 44°43' E 021°05'0 0.0
2017-Dec-11 20:00N 44°43' E 021°05'0 0.0
2017-Dec-11 19:30N 44°43' E 021°05'0 0.0
2017-Dec-11 19:01N 44°43' E 021°05'0 0.0
2017-Dec-11 18:31N 44°43' E 021°05'0 0.0
2017-Dec-11 18:00N 44°43' E 021°05'0 0.0
2017-Dec-11 17:30N 44°43' E 021°05'0 0.0
2017-Dec-11 17:01N 44°43' E 021°05'0 0.0
2017-Dec-11 16:31N 44°43' E 021°05'0 0.0
2017-Dec-11 16:01N 44°43' E 021°05'0 0.0
2017-Dec-11 15:31N 44°43' E 021°05'0 0.1
2017-Dec-11 15:00N 44°43' E 021°05'2 3.7
2017-Dec-11 14:31N 44°43' E 021°02'2 4.2
2017-Dec-11 14:01N 44°43' E 020°59'2 4.0
2017-Dec-11 13:31N 44°42' E 020°57'2 4.5
2017-Dec-11 13:00N 44°40' E 020°55'25 3.3
2017-Dec-11 05:30N 44°52' E 020°24'0 0.0
2017-Dec-11 05:01N 44°52' E 020°24'0 0.0
2017-Dec-11 04:31N 44°52' E 020°24'0 0.0
2017-Dec-11 04:01N 44°52' E 020°24'0 0.0
2017-Dec-11 03:31N 44°52' E 020°24'0 0.0
2017-Dec-11 03:01N 44°52' E 020°24'0 0.0
2017-Dec-11 02:31N 44°52' E 020°24'0 0.0
2017-Dec-11 02:00N 44°52' E 020°24'0 0.0
2017-Dec-11 01:31N 44°52' E 020°24'0 0.0
2017-Dec-11 01:01N 44°52' E 020°24'0 0.0
2017-Dec-11 00:31N 44°52' E 020°24'0 0.0
2017-Dec-11 00:01N 44°52' E 020°24'0 0.0
2017-Dec-10 23:31N 44°52' E 020°24'0 0.0
2017-Dec-10 23:01N 44°52' E 020°24'0 0.0
2017-Dec-10 22:31N 44°52' E 020°24'0 0.0
2017-Dec-10 22:01N 44°52' E 020°24'0 0.0
2017-Dec-10 21:31N 44°52' E 020°24'0 0.1
2017-Dec-10 21:01N 44°52' E 020°24'2 4.4
2017-Dec-10 20:31N 44°53' E 020°21'2 4.6
2017-Dec-10 20:01N 44°55' E 020°20'3 5.0
2017-Dec-10 19:31N 44°57' E 020°18'2 4.8
2017-Dec-10 19:00N 44°59' E 020°18'3 5.4
2017-Dec-10 18:30N 45°00' E 020°21'2 4.7
2017-Dec-10 18:00N 45°03' E 020°22'3 4.8
2017-Dec-10 17:27N 45°05' E 020°19'2 4.7
2017-Dec-10 17:00N 45°07' E 020°18'2 4.1
2017-Dec-10 16:30N 45°08' E 020°17'2 3.7
2017-Dec-10 15:57N 45°11' E 020°17'2 3.8
2017-Dec-10 15:31N 45°12' E 020°19'2 4.0
2017-Dec-10 15:00N 45°14' E 020°19'  

Dump ship's entire track history